sensor_id;sensor_type;location;lat;lon;timestamp;P1;durP1;ratioP1;P2;durP2;ratioP2
51292;SDS011;37377;45.186;9.778;2022-08-20T00:00:31;17.95;;;8.23;;
51292;SDS011;37377;45.186;9.778;2022-08-20T00:03:33;10.70;;;8.27;;
51292;SDS011;37377;45.186;9.778;2022-08-20T00:06:47;11.93;;;8.45;;
51292;SDS011;37377;45.186;9.778;2022-08-20T00:09:37;14.10;;;7.65;;
51292;SDS011;37377;45.186;9.778;2022-08-20T00:12:35;15.98;;;8.20;;
51292;SDS011;37377;45.186;9.778;2022-08-20T00:15:24;17.45;;;8.98;;
51292;SDS011;37377;45.186;9.778;2022-08-20T00:18:02;11.05;;;8.43;;
51292;SDS011;37377;45.186;9.778;2022-08-20T00:20:47;13.05;;;8.77;;
51292;SDS011;37377;45.186;9.778;2022-08-20T00:23:26;13.30;;;8.75;;
51292;SDS011;37377;45.186;9.778;2022-08-20T00:26:05;18.77;;;9.38;;
51292;SDS011;37377;45.186;9.778;2022-08-20T00:28:34;12.85;;;8.63;;
51292;SDS011;37377;45.186;9.778;2022-08-20T00:31:53;11.63;;;8.48;;
51292;SDS011;37377;45.186;9.778;2022-08-20T00:38:33;15.82;;;8.18;;
51292;SDS011;37377;45.186;9.778;2022-08-20T00:43:32;12.15;;;7.43;;
51292;SDS011;37377;45.186;9.778;2022-08-20T00:50:00;16.65;;;7.32;;
51292;SDS011;37377;45.186;9.778;2022-08-20T00:52:52;8.52;;;7.72;;
51292;SDS011;37377;45.186;9.778;2022-08-20T00:56:21;12.95;;;8.25;;
51292;SDS011;37377;45.186;9.778;2022-08-20T00:59:26;8.98;;;7.63;;
51292;SDS011;37377;45.186;9.778;2022-08-20T01:02:08;15.85;;;7.57;;
51292;SDS011;37377;45.186;9.778;2022-08-20T01:05:23;12.18;;;7.47;;
51292;SDS011;37377;45.186;9.778;2022-08-20T01:07:56;10.55;;;7.68;;
51292;SDS011;37377;45.186;9.778;2022-08-20T01:10:27;9.73;;;7.72;;
51292;SDS011;37377;45.186;9.778;2022-08-20T01:13:15;13.18;;;7.20;;
51292;SDS011;37377;45.186;9.778;2022-08-20T01:15:48;9.70;;;8.15;;
51292;SDS011;37377;45.186;9.778;2022-08-20T01:18:31;9.23;;;8.13;;
51292;SDS011;37377;45.186;9.778;2022-08-20T01:21:18;9.07;;;8.18;;
51292;SDS011;37377;45.186;9.778;2022-08-20T01:24:06;8.68;;;7.80;;
51292;SDS011;37377;45.186;9.778;2022-08-20T01:26:43;18.92;;;7.90;;
51292;SDS011;37377;45.186;9.778;2022-08-20T01:29:22;13.02;;;7.53;;
51292;SDS011;37377;45.186;9.778;2022-08-20T01:31:54;9.52;;;8.15;;
51292;SDS011;37377;45.186;9.778;2022-08-20T01:35:54;9.07;;;7.55;;
51292;SDS011;37377;45.186;9.778;2022-08-20T01:39:22;11.27;;;7.88;;
51292;SDS011;37377;45.186;9.778;2022-08-20T01:45:20;12.90;;;8.50;;
51292;SDS011;37377;45.186;9.778;2022-08-20T01:48:17;13.40;;;7.97;;
51292;SDS011;37377;45.186;9.778;2022-08-20T01:52:53;9.88;;;8.68;;
51292;SDS011;37377;45.186;9.778;2022-08-20T01:56:22;13.00;;;8.52;;
51292;SDS011;37377;45.186;9.778;2022-08-20T02:00:55;10.50;;;7.68;;
51292;SDS011;37377;45.186;9.778;2022-08-20T02:04:12;10.05;;;8.13;;
51292;SDS011;37377;45.186;9.778;2022-08-20T02:07:25;12.15;;;8.13;;
51292;SDS011;37377;45.186;9.778;2022-08-20T02:16:44;12.27;;;8.35;;
51292;SDS011;37377;45.186;9.778;2022-08-20T02:19:55;15.55;;;8.82;;
51292;SDS011;37377;45.186;9.778;2022-08-20T02:23:30;8.73;;;7.93;;
51292;SDS011;37377;45.186;9.778;2022-08-20T02:33:46;8.60;;;7.90;;
51292;SDS011;37377;45.186;9.778;2022-08-20T02:36:59;21.30;;;8.38;;
51292;SDS011;37377;45.186;9.778;2022-08-20T02:50:16;8.88;;;7.38;;
51292;SDS011;37377;45.186;9.778;2022-08-20T02:53:04;8.80;;;7.32;;
51292;SDS011;37377;45.186;9.778;2022-08-20T02:58:17;10.43;;;7.30;;
51292;SDS011;37377;45.186;9.778;2022-08-20T03:03:02;11.85;;;8.45;;
51292;SDS011;37377;45.186;9.778;2022-08-20T03:07:24;8.27;;;7.47;;
51292;SDS011;37377;45.186;9.778;2022-08-20T03:16:48;10.63;;;7.55;;
51292;SDS011;37377;45.186;9.778;2022-08-20T03:21:25;16.00;;;7.93;;
51292;SDS011;37377;45.186;9.778;2022-08-20T03:25:12;14.05;;;8.15;;
51292;SDS011;37377;45.186;9.778;2022-08-20T03:28:24;11.20;;;9.75;;
51292;SDS011;37377;45.186;9.778;2022-08-20T03:31:40;9.30;;;8.60;;
51292;SDS011;37377;45.186;9.778;2022-08-20T03:34:33;10.15;;;8.13;;
51292;SDS011;37377;45.186;9.778;2022-08-20T03:38:56;14.43;;;8.73;;
51292;SDS011;37377;45.186;9.778;2022-08-20T03:41:53;11.02;;;8.60;;
51292;SDS011;37377;45.186;9.778;2022-08-20T03:45:25;20.90;;;9.55;;
51292;SDS011;37377;45.186;9.778;2022-08-20T03:49:33;10.20;;;9.20;;
51292;SDS011;37377;45.186;9.778;2022-08-20T03:52:49;14.60;;;9.30;;
51292;SDS011;37377;45.186;9.778;2022-08-20T04:32:33;14.25;;;12.55;;
51292;SDS011;37377;45.186;9.778;2022-08-20T04:37:01;17.60;;;13.98;;
51292;SDS011;37377;45.186;9.778;2022-08-20T04:40:33;15.65;;;13.10;;
51292;SDS011;37377;45.186;9.778;2022-08-20T04:43:52;18.02;;;13.70;;
51292;SDS011;37377;45.186;9.778;2022-08-20T04:46:21;14.43;;;12.90;;
51292;SDS011;37377;45.186;9.778;2022-08-20T04:49:16;19.42;;;13.68;;
51292;SDS011;37377;45.186;9.778;2022-08-20T04:52:16;23.13;;;12.52;;
51292;SDS011;37377;45.186;9.778;2022-08-20T05:11:01;14.52;;;11.27;;
51292;SDS011;37377;45.186;9.778;2022-08-20T05:14:05;22.33;;;11.02;;
51292;SDS011;37377;45.186;9.778;2022-08-20T05:16:49;10.63;;;8.00;;
51292;SDS011;37377;45.186;9.778;2022-08-20T05:19:16;13.57;;;7.20;;
51292;SDS011;37377;45.186;9.778;2022-08-20T05:21:43;34.28;;;6.40;;
51292;SDS011;37377;45.186;9.778;2022-08-20T05:24:10;10.30;;;5.22;;
51292;SDS011;37377;45.186;9.778;2022-08-20T05:26:37;9.63;;;4.28;;
51292;SDS011;37377;45.186;9.778;2022-08-20T05:29:04;10.18;;;4.05;;
51292;SDS011;37377;45.186;9.778;2022-08-20T05:31:32;16.95;;;3.80;;
51292;SDS011;37377;45.186;9.778;2022-08-20T05:34:01;7.22;;;3.83;;
51292;SDS011;37377;45.186;9.778;2022-08-20T05:36:40;9.27;;;3.38;;
51292;SDS011;37377;45.186;9.778;2022-08-20T05:39:09;3.80;;;3.15;;
51292;SDS011;37377;45.186;9.778;2022-08-20T05:41:36;15.68;;;3.10;;
51292;SDS011;37377;45.186;9.778;2022-08-20T05:44:04;6.65;;;3.35;;
51292;SDS011;37377;45.186;9.778;2022-08-20T05:46:35;10.80;;;2.55;;
51292;SDS011;37377;45.186;9.778;2022-08-20T05:49:07;10.23;;;2.67;;
51292;SDS011;37377;45.186;9.778;2022-08-20T05:51:35;16.60;;;2.17;;
51292;SDS011;37377;45.186;9.778;2022-08-20T05:54:03;4.15;;;1.60;;
51292;SDS011;37377;45.186;9.778;2022-08-20T05:56:30;5.45;;;1.70;;
51292;SDS011;37377;45.186;9.778;2022-08-20T05:58:59;2.40;;;1.45;;
51292;SDS011;37377;45.186;9.778;2022-08-20T06:01:30;11.50;;;1.48;;
51292;SDS011;37377;45.186;9.778;2022-08-20T06:03:58;3.53;;;1.20;;
51292;SDS011;37377;45.186;9.778;2022-08-20T06:06:44;13.30;;;1.60;;
51292;SDS011;37377;45.186;9.778;2022-08-20T06:09:14;6.00;;;1.48;;
51292;SDS011;37377;45.186;9.778;2022-08-20T06:11:57;4.38;;;1.60;;
51292;SDS011;37377;45.186;9.778;2022-08-20T06:14:25;1.92;;;1.17;;
51292;SDS011;37377;45.186;9.778;2022-08-20T06:16:53;5.13;;;1.55;;
51292;SDS011;37377;45.186;9.778;2022-08-20T06:19:25;11.40;;;1.33;;
51292;SDS011;37377;45.186;9.778;2022-08-20T06:21:58;5.97;;;1.60;;
51292;SDS011;37377;45.186;9.778;2022-08-20T06:24:25;3.30;;;1.38;;
51292;SDS011;37377;45.186;9.778;2022-08-20T06:26:56;5.53;;;1.58;;
51292;SDS011;37377;45.186;9.778;2022-08-20T06:29:24;3.15;;;1.40;;
51292;SDS011;37377;45.186;9.778;2022-08-20T06:31:52;3.85;;;1.77;;
51292;SDS011;37377;45.186;9.778;2022-08-20T06:34:19;3.88;;;1.58;;
51292;SDS011;37377;45.186;9.778;2022-08-20T06:36:46;6.90;;;1.30;;
51292;SDS011;37377;45.186;9.778;2022-08-20T06:39:13;4.60;;;1.40;;
51292;SDS011;37377;45.186;9.778;2022-08-20T06:41:41;8.90;;;1.60;;
51292;SDS011;37377;45.186;9.778;2022-08-20T06:44:08;2.30;;;1.23;;
51292;SDS011;37377;45.186;9.778;2022-08-20T06:46:36;3.03;;;1.30;;
51292;SDS011;37377;45.186;9.778;2022-08-20T06:49:04;3.88;;;1.65;;
51292;SDS011;37377;45.186;9.778;2022-08-20T06:51:32;2.78;;;1.23;;
51292;SDS011;37377;45.186;9.778;2022-08-20T06:53:59;7.43;;;1.60;;
51292;SDS011;37377;45.186;9.778;2022-08-20T06:56:26;3.70;;;1.20;;
51292;SDS011;37377;45.186;9.778;2022-08-20T06:58:53;3.05;;;1.23;;
51292;SDS011;37377;45.186;9.778;2022-08-20T07:01:21;9.27;;;1.25;;
51292;SDS011;37377;45.186;9.778;2022-08-20T07:03:51;5.28;;;1.30;;
51292;SDS011;37377;45.186;9.778;2022-08-20T07:06:22;3.17;;;1.10;;
51292;SDS011;37377;45.186;9.778;2022-08-20T07:08:51;5.57;;;1.30;;
51292;SDS011;37377;45.186;9.778;2022-08-20T07:11:19;2.83;;;1.08;;
51292;SDS011;37377;45.186;9.778;2022-08-20T07:13:53;10.13;;;1.42;;
51292;SDS011;37377;45.186;9.778;2022-08-20T07:16:22;6.10;;;1.10;;
51292;SDS011;37377;45.186;9.778;2022-08-20T07:18:49;5.72;;;1.10;;
51292;SDS011;37377;45.186;9.778;2022-08-20T07:21:18;4.78;;;1.20;;
51292;SDS011;37377;45.186;9.778;2022-08-20T07:23:46;2.72;;;1.30;;
51292;SDS011;37377;45.186;9.778;2022-08-20T07:26:15;3.38;;;1.20;;
51292;SDS011;37377;45.186;9.778;2022-08-20T07:28:45;6.00;;;1.20;;
51292;SDS011;37377;45.186;9.778;2022-08-20T07:31:12;2.25;;;1.20;;
51292;SDS011;37377;45.186;9.778;2022-08-20T07:34:00;4.10;;;1.30;;
51292;SDS011;37377;45.186;9.778;2022-08-20T07:36:30;4.90;;;1.27;;
51292;SDS011;37377;45.186;9.778;2022-08-20T07:38:57;4.20;;;1.10;;
51292;SDS011;37377;45.186;9.778;2022-08-20T07:41:31;3.17;;;1.10;;
51292;SDS011;37377;45.186;9.778;2022-08-20T07:43:58;3.47;;;1.17;;
51292;SDS011;37377;45.186;9.778;2022-08-20T07:46:24;4.30;;;1.10;;
51292;SDS011;37377;45.186;9.778;2022-08-20T07:48:57;3.58;;;1.33;;
51292;SDS011;37377;45.186;9.778;2022-08-20T07:51:24;4.22;;;1.23;;
51292;SDS011;37377;45.186;9.778;2022-08-20T07:53:51;8.02;;;1.45;;
51292;SDS011;37377;45.186;9.778;2022-08-20T07:56:19;6.65;;;1.40;;
51292;SDS011;37377;45.186;9.778;2022-08-20T07:58:51;7.65;;;1.30;;
51292;SDS011;37377;45.186;9.778;2022-08-20T08:01:24;4.22;;;1.35;;
51292;SDS011;37377;45.186;9.778;2022-08-20T08:03:54;6.53;;;2.17;;
51292;SDS011;37377;45.186;9.778;2022-08-20T08:06:23;2.28;;;1.30;;
51292;SDS011;37377;45.186;9.778;2022-08-20T08:09:06;8.88;;;1.70;;
51292;SDS011;37377;45.186;9.778;2022-08-20T08:11:35;11.05;;;1.60;;
51292;SDS011;37377;45.186;9.778;2022-08-20T08:14:05;4.80;;;1.38;;
51292;SDS011;37377;45.186;9.778;2022-08-20T08:16:33;3.50;;;1.30;;
51292;SDS011;37377;45.186;9.778;2022-08-20T08:19:01;2.95;;;1.27;;
51292;SDS011;37377;45.186;9.778;2022-08-20T08:21:31;8.40;;;5.20;;
51292;SDS011;37377;45.186;9.778;2022-08-20T08:23:58;5.88;;;1.50;;
51292;SDS011;37377;45.186;9.778;2022-08-20T08:26:25;4.88;;;1.67;;
51292;SDS011;37377;45.186;9.778;2022-08-20T08:28:54;4.45;;;1.48;;
51292;SDS011;37377;45.186;9.778;2022-08-20T08:31:23;6.18;;;1.70;;
51292;SDS011;37377;45.186;9.778;2022-08-20T08:33:51;19.05;;;1.83;;
51292;SDS011;37377;45.186;9.778;2022-08-20T08:36:18;5.00;;;1.77;;
51292;SDS011;37377;45.186;9.778;2022-08-20T08:38:45;4.75;;;1.67;;
51292;SDS011;37377;45.186;9.778;2022-08-20T08:41:15;5.30;;;1.70;;
51292;SDS011;37377;45.186;9.778;2022-08-20T08:43:48;7.32;;;1.70;;
51292;SDS011;37377;45.186;9.778;2022-08-20T08:46:20;6.18;;;1.90;;
51292;SDS011;37377;45.186;9.778;2022-08-20T08:48:51;5.43;;;2.20;;
51292;SDS011;37377;45.186;9.778;2022-08-20T08:51:23;3.03;;;2.30;;
51292;SDS011;37377;45.186;9.778;2022-08-20T08:53:55;8.32;;;2.60;;
51292;SDS011;37377;45.186;9.778;2022-08-20T08:56:24;3.42;;;2.35;;
51292;SDS011;37377;45.186;9.778;2022-08-20T08:58:58;8.40;;;2.63;;
51292;SDS011;37377;45.186;9.778;2022-08-20T09:01:31;5.40;;;3.45;;
51292;SDS011;37377;45.186;9.778;2022-08-20T09:04:19;4.03;;;1.90;;
51292;SDS011;37377;45.186;9.778;2022-08-20T09:06:48;4.65;;;1.85;;
51292;SDS011;37377;45.186;9.778;2022-08-20T09:09:23;6.73;;;1.70;;
51292;SDS011;37377;45.186;9.778;2022-08-20T09:12:02;14.07;;;2.63;;
51292;SDS011;37377;45.186;9.778;2022-08-20T09:14:40;8.90;;;2.47;;
51292;SDS011;37377;45.186;9.778;2022-08-20T09:17:07;8.73;;;2.20;;
51292;SDS011;37377;45.186;9.778;2022-08-20T09:19:34;10.77;;;2.53;;
51292;SDS011;37377;45.186;9.778;2022-08-20T09:22:08;9.75;;;2.42;;
51292;SDS011;37377;45.186;9.778;2022-08-20T09:24:36;4.05;;;1.98;;
51292;SDS011;37377;45.186;9.778;2022-08-20T09:27:03;8.25;;;1.95;;
51292;SDS011;37377;45.186;9.778;2022-08-20T09:29:30;5.70;;;2.10;;
51292;SDS011;37377;45.186;9.778;2022-08-20T09:32:06;4.43;;;1.90;;
51292;SDS011;37377;45.186;9.778;2022-08-20T09:34:45;3.67;;;2.17;;
51292;SDS011;37377;45.186;9.778;2022-08-20T09:37:13;2.72;;;1.70;;
51292;SDS011;37377;45.186;9.778;2022-08-20T09:39:40;5.55;;;1.70;;
51292;SDS011;37377;45.186;9.778;2022-08-20T09:42:11;3.55;;;1.50;;
51292;SDS011;37377;45.186;9.778;2022-08-20T09:44:40;7.55;;;1.83;;
51292;SDS011;37377;45.186;9.778;2022-08-20T09:47:08;4.35;;;1.33;;
51292;SDS011;37377;45.186;9.778;2022-08-20T09:49:35;2.38;;;1.30;;
51292;SDS011;37377;45.186;9.778;2022-08-20T09:52:07;3.58;;;1.30;;
51292;SDS011;37377;45.186;9.778;2022-08-20T09:54:36;4.13;;;1.23;;
51292;SDS011;37377;45.186;9.778;2022-08-20T09:57:12;9.52;;;1.50;;
51292;SDS011;37377;45.186;9.778;2022-08-20T09:59:40;2.17;;;1.30;;
51292;SDS011;37377;45.186;9.778;2022-08-20T10:02:08;3.45;;;1.27;;
51292;SDS011;37377;45.186;9.778;2022-08-20T10:04:34;7.85;;;1.20;;
51292;SDS011;37377;45.186;9.778;2022-08-20T10:07:05;2.38;;;0.98;;
51292;SDS011;37377;45.186;9.778;2022-08-20T10:09:33;3.03;;;1.10;;
51292;SDS011;37377;45.186;9.778;2022-08-20T10:12:02;3.00;;;1.08;;
51292;SDS011;37377;45.186;9.778;2022-08-20T10:14:29;3.92;;;1.20;;
51292;SDS011;37377;45.186;9.778;2022-08-20T10:16:57;1.30;;;1.13;;
51292;SDS011;37377;45.186;9.778;2022-08-20T10:19:25;1.20;;;1.05;;
51292;SDS011;37377;45.186;9.778;2022-08-20T10:21:53;2.92;;;1.20;;
51292;SDS011;37377;45.186;9.778;2022-08-20T10:24:20;1.50;;;1.30;;
51292;SDS011;37377;45.186;9.778;2022-08-20T10:26:47;4.75;;;1.30;;
51292;SDS011;37377;45.186;9.778;2022-08-20T10:29:15;3.22;;;1.20;;
51292;SDS011;37377;45.186;9.778;2022-08-20T10:31:42;9.50;;;1.50;;
51292;SDS011;37377;45.186;9.778;2022-08-20T10:34:09;2.58;;;1.20;;
51292;SDS011;37377;45.186;9.778;2022-08-20T10:36:36;6.88;;;1.83;;
51292;SDS011;37377;45.186;9.778;2022-08-20T10:39:03;3.72;;;1.15;;
51292;SDS011;37377;45.186;9.778;2022-08-20T10:41:30;2.70;;;0.88;;
51292;SDS011;37377;45.186;9.778;2022-08-20T10:43:57;1.80;;;1.20;;
51292;SDS011;37377;45.186;9.778;2022-08-20T10:46:24;3.15;;;1.30;;
51292;SDS011;37377;45.186;9.778;2022-08-20T10:48:51;1.85;;;1.10;;
51292;SDS011;37377;45.186;9.778;2022-08-20T10:51:18;3.90;;;1.30;;
51292;SDS011;37377;45.186;9.778;2022-08-20T10:53:45;3.42;;;1.10;;
51292;SDS011;37377;45.186;9.778;2022-08-20T10:56:12;7.18;;;1.20;;
51292;SDS011;37377;45.186;9.778;2022-08-20T10:58:41;5.70;;;1.20;;
51292;SDS011;37377;45.186;9.778;2022-08-20T11:01:10;3.70;;;1.08;;
51292;SDS011;37377;45.186;9.778;2022-08-20T11:03:37;2.15;;;1.30;;
51292;SDS011;37377;45.186;9.778;2022-08-20T11:06:04;8.90;;;1.30;;
51292;SDS011;37377;45.186;9.778;2022-08-20T11:08:31;3.28;;;1.20;;
51292;SDS011;37377;45.186;9.778;2022-08-20T11:11:02;1.30;;;1.08;;
51292;SDS011;37377;45.186;9.778;2022-08-20T11:13:29;2.65;;;1.30;;
51292;SDS011;37377;45.186;9.778;2022-08-20T11:15:56;5.15;;;1.20;;
51292;SDS011;37377;45.186;9.778;2022-08-20T11:18:23;2.85;;;1.27;;
51292;SDS011;37377;45.186;9.778;2022-08-20T11:20:50;2.60;;;1.08;;
51292;SDS011;37377;45.186;9.778;2022-08-20T11:23:17;4.85;;;1.50;;
51292;SDS011;37377;45.186;9.778;2022-08-20T11:25:44;5.57;;;1.17;;
51292;SDS011;37377;45.186;9.778;2022-08-20T11:28:11;1.52;;;1.00;;
51292;SDS011;37377;45.186;9.778;2022-08-20T11:30:38;2.05;;;1.08;;
51292;SDS011;37377;45.186;9.778;2022-08-20T11:33:05;4.75;;;1.08;;
51292;SDS011;37377;45.186;9.778;2022-08-20T11:35:33;1.15;;;0.82;;
51292;SDS011;37377;45.186;9.778;2022-08-20T11:38:15;6.20;;;1.17;;
51292;SDS011;37377;45.186;9.778;2022-08-20T11:40:42;1.40;;;1.27;;
51292;SDS011;37377;45.186;9.778;2022-08-20T11:43:09;2.17;;;1.00;;
51292;SDS011;37377;45.186;9.778;2022-08-20T11:45:42;2.35;;;1.30;;
51292;SDS011;37377;45.186;9.778;2022-08-20T11:48:10;4.75;;;1.10;;
51292;SDS011;37377;45.186;9.778;2022-08-20T11:50:37;2.30;;;1.10;;
51292;SDS011;37377;45.186;9.778;2022-08-20T11:53:04;3.20;;;1.08;;
51292;SDS011;37377;45.186;9.778;2022-08-20T11:55:33;3.97;;;1.20;;
51292;SDS011;37377;45.186;9.778;2022-08-20T11:58:01;5.90;;;1.40;;
51292;SDS011;37377;45.186;9.778;2022-08-20T12:00:29;4.97;;;1.38;;
51292;SDS011;37377;45.186;9.778;2022-08-20T12:03:02;1.98;;;1.00;;
51292;SDS011;37377;45.186;9.778;2022-08-20T12:05:34;1.73;;;1.00;;
51292;SDS011;37377;45.186;9.778;2022-08-20T12:08:02;2.53;;;0.98;;
51292;SDS011;37377;45.186;9.778;2022-08-20T12:10:30;1.55;;;1.10;;
51292;SDS011;37377;45.186;9.778;2022-08-20T12:12:57;4.45;;;2.13;;
51292;SDS011;37377;45.186;9.778;2022-08-20T12:15:25;1.73;;;1.00;;
51292;SDS011;37377;45.186;9.778;2022-08-20T12:17:53;2.25;;;1.30;;
51292;SDS011;37377;45.186;9.778;2022-08-20T12:20:21;3.95;;;1.00;;
51292;SDS011;37377;45.186;9.778;2022-08-20T12:22:49;1.55;;;1.10;;
51292;SDS011;37377;45.186;9.778;2022-08-20T12:25:16;3.70;;;1.20;;
51292;SDS011;37377;45.186;9.778;2022-08-20T12:27:44;3.30;;;1.20;;
51292;SDS011;37377;45.186;9.778;2022-08-20T12:30:13;1.25;;;1.02;;
51292;SDS011;37377;45.186;9.778;2022-08-20T12:32:42;2.05;;;1.17;;
51292;SDS011;37377;45.186;9.778;2022-08-20T12:35:10;2.78;;;1.00;;
51292;SDS011;37377;45.186;9.778;2022-08-20T12:37:39;1.17;;;1.00;;
51292;SDS011;37377;45.186;9.778;2022-08-20T12:40:08;4.47;;;1.45;;
51292;SDS011;37377;45.186;9.778;2022-08-20T12:42:38;1.45;;;0.98;;
51292;SDS011;37377;45.186;9.778;2022-08-20T12:45:05;1.00;;;0.93;;
51292;SDS011;37377;45.186;9.778;2022-08-20T12:47:34;3.63;;;1.10;;
51292;SDS011;37377;45.186;9.778;2022-08-20T12:50:07;6.68;;;1.10;;
51292;SDS011;37377;45.186;9.778;2022-08-20T12:52:39;4.97;;;1.00;;
51292;SDS011;37377;45.186;9.778;2022-08-20T12:55:10;1.00;;;0.90;;
51292;SDS011;37377;45.186;9.778;2022-08-20T12:57:40;0.95;;;0.90;;
51292;SDS011;37377;45.186;9.778;2022-08-20T13:00:15;0.70;;;0.70;;
51292;SDS011;37377;45.186;9.778;2022-08-20T13:02:47;1.70;;;1.10;;
51292;SDS011;37377;45.186;9.778;2022-08-20T13:05:15;2.35;;;1.05;;
51292;SDS011;37377;45.186;9.778;2022-08-20T13:07:43;4.63;;;1.17;;
51292;SDS011;37377;45.186;9.778;2022-08-20T13:10:11;1.45;;;1.05;;
51292;SDS011;37377;45.186;9.778;2022-08-20T13:13:13;3.17;;;1.00;;
51292;SDS011;37377;45.186;9.778;2022-08-20T13:15:46;3.60;;;0.90;;
51292;SDS011;37377;45.186;9.778;2022-08-20T13:18:15;4.88;;;1.00;;
51292;SDS011;37377;45.186;9.778;2022-08-20T13:20:42;1.35;;;1.00;;
51292;SDS011;37377;45.186;9.778;2022-08-20T13:23:09;4.07;;;0.88;;
51292;SDS011;37377;45.186;9.778;2022-08-20T13:25:35;1.48;;;0.85;;
51292;SDS011;37377;45.186;9.778;2022-08-20T13:28:03;2.13;;;1.00;;
51292;SDS011;37377;45.186;9.778;2022-08-20T13:30:31;3.83;;;0.82;;
51292;SDS011;37377;45.186;9.778;2022-08-20T13:33:00;1.58;;;1.00;;
51292;SDS011;37377;45.186;9.778;2022-08-20T13:35:27;5.72;;;0.80;;
51292;SDS011;37377;45.186;9.778;2022-08-20T13:37:54;1.00;;;0.90;;
51292;SDS011;37377;45.186;9.778;2022-08-20T13:40:24;1.10;;;0.90;;
51292;SDS011;37377;45.186;9.778;2022-08-20T13:42:52;0.98;;;0.70;;
51292;SDS011;37377;45.186;9.778;2022-08-20T13:45:20;1.10;;;0.90;;
51292;SDS011;37377;45.186;9.778;2022-08-20T13:47:47;2.65;;;0.80;;
51292;SDS011;37377;45.186;9.778;2022-08-20T13:50:18;1.60;;;1.00;;
51292;SDS011;37377;45.186;9.778;2022-08-20T13:52:46;0.95;;;0.80;;
51292;SDS011;37377;45.186;9.778;2022-08-20T13:55:15;4.32;;;1.13;;
51292;SDS011;37377;45.186;9.778;2022-08-20T13:57:44;1.10;;;1.00;;
51292;SDS011;37377;45.186;9.778;2022-08-20T14:00:14;3.22;;;1.15;;
51292;SDS011;37377;45.186;9.778;2022-08-20T14:02:43;3.33;;;0.90;;
51292;SDS011;37377;45.186;9.778;2022-08-20T14:05:13;5.68;;;1.15;;
51292;SDS011;37377;45.186;9.778;2022-08-20T14:07:45;1.73;;;0.90;;
51292;SDS011;37377;45.186;9.778;2022-08-20T14:10:19;2.15;;;1.10;;
51292;SDS011;37377;45.186;9.778;2022-08-20T14:12:50;1.40;;;1.15;;
51292;SDS011;37377;45.186;9.778;2022-08-20T14:15:17;3.65;;;1.10;;
51292;SDS011;37377;45.186;9.778;2022-08-20T14:17:49;3.00;;;0.93;;
51292;SDS011;37377;45.186;9.778;2022-08-20T14:20:23;4.63;;;1.35;;
51292;SDS011;37377;45.186;9.778;2022-08-20T14:22:57;0.90;;;0.90;;
51292;SDS011;37377;45.186;9.778;2022-08-20T14:25:25;1.77;;;1.17;;
51292;SDS011;37377;45.186;9.778;2022-08-20T14:27:53;3.80;;;1.02;;
51292;SDS011;37377;45.186;9.778;2022-08-20T14:30:21;4.38;;;0.90;;
51292;SDS011;37377;45.186;9.778;2022-08-20T14:32:58;2.60;;;1.00;;
51292;SDS011;37377;45.186;9.778;2022-08-20T14:35:25;1.17;;;0.90;;
51292;SDS011;37377;45.186;9.778;2022-08-20T14:37:52;0.95;;;0.80;;
51292;SDS011;37377;45.186;9.778;2022-08-20T14:40:21;1.90;;;1.00;;
51292;SDS011;37377;45.186;9.778;2022-08-20T14:42:53;0.98;;;0.90;;
51292;SDS011;37377;45.186;9.778;2022-08-20T14:45:21;5.63;;;1.10;;
51292;SDS011;37377;45.186;9.778;2022-08-20T14:47:50;1.10;;;1.00;;
51292;SDS011;37377;45.186;9.778;2022-08-20T14:50:24;1.30;;;0.80;;
51292;SDS011;37377;45.186;9.778;2022-08-20T14:52:56;0.90;;;0.90;;
51292;SDS011;37377;45.186;9.778;2022-08-20T14:55:26;7.25;;;1.10;;
51292;SDS011;37377;45.186;9.778;2022-08-20T14:57:56;2.35;;;0.80;;
51292;SDS011;37377;45.186;9.778;2022-08-20T15:00:28;2.22;;;1.00;;
51292;SDS011;37377;45.186;9.778;2022-08-20T15:02:56;4.53;;;0.98;;
51292;SDS011;37377;45.186;9.778;2022-08-20T15:05:24;3.88;;;1.02;;
51292;SDS011;37377;45.186;9.778;2022-08-20T15:07:52;6.47;;;1.10;;
51292;SDS011;37377;45.186;9.778;2022-08-20T15:10:21;1.55;;;1.00;;
51292;SDS011;37377;45.186;9.778;2022-08-20T15:12:54;3.35;;;1.00;;
51292;SDS011;37377;45.186;9.778;2022-08-20T15:15:23;1.25;;;1.10;;
51292;SDS011;37377;45.186;9.778;2022-08-20T15:17:52;5.03;;;1.30;;
51292;SDS011;37377;45.186;9.778;2022-08-20T15:20:24;3.17;;;0.90;;
51292;SDS011;37377;45.186;9.778;2022-08-20T15:22:53;2.58;;;1.10;;
51292;SDS011;37377;45.186;9.778;2022-08-20T15:25:21;2.08;;;1.13;;
51292;SDS011;37377;45.186;9.778;2022-08-20T15:27:50;2.40;;;0.90;;
51292;SDS011;37377;45.186;9.778;2022-08-20T15:30:21;3.45;;;0.80;;
51292;SDS011;37377;45.186;9.778;2022-08-20T15:32:48;2.63;;;0.90;;
51292;SDS011;37377;45.186;9.778;2022-08-20T15:35:24;0.65;;;0.65;;
51292;SDS011;37377;45.186;9.778;2022-08-20T15:37:54;1.15;;;0.85;;
51292;SDS011;37377;45.186;9.778;2022-08-20T15:40:24;1.13;;;0.90;;
51292;SDS011;37377;45.186;9.778;2022-08-20T15:42:55;0.90;;;0.70;;
51292;SDS011;37377;45.186;9.778;2022-08-20T15:45:25;3.03;;;1.10;;
51292;SDS011;37377;45.186;9.778;2022-08-20T15:50:33;10.93;;;1.00;;
51292;SDS011;37377;45.186;9.778;2022-08-20T15:53:05;5.30;;;1.00;;
51292;SDS011;37377;45.186;9.778;2022-08-20T15:55:36;2.10;;;0.80;;
51292;SDS011;37377;45.186;9.778;2022-08-20T16:01:21;1.50;;;1.10;;
51292;SDS011;37377;45.186;9.778;2022-08-20T16:06:35;4.65;;;0.95;;
51292;SDS011;37377;45.186;9.778;2022-08-20T16:09:06;2.20;;;0.80;;
51292;SDS011;37377;45.186;9.778;2022-08-20T16:11:50;2.25;;;0.90;;
51292;SDS011;37377;45.186;9.778;2022-08-20T16:14:27;0.80;;;0.80;;
51292;SDS011;37377;45.186;9.778;2022-08-20T16:17:00;4.18;;;1.00;;
51292;SDS011;37377;45.186;9.778;2022-08-20T16:22:13;2.17;;;0.73;;
51292;SDS011;37377;45.186;9.778;2022-08-20T16:24:43;6.57;;;1.00;;
51292;SDS011;37377;45.186;9.778;2022-08-20T16:30:06;1.42;;;0.93;;
51292;SDS011;37377;45.186;9.778;2022-08-20T16:35:16;2.13;;;0.88;;
51292;SDS011;37377;45.186;9.778;2022-08-20T16:40:47;2.17;;;1.00;;
51292;SDS011;37377;45.186;9.778;2022-08-20T16:43:22;3.15;;;0.80;;
51292;SDS011;37377;45.186;9.778;2022-08-20T16:45:58;5.43;;;1.00;;
51292;SDS011;37377;45.186;9.778;2022-08-20T16:48:29;2.50;;;1.13;;
51292;SDS011;37377;45.186;9.778;2022-08-20T16:51:00;1.40;;;1.30;;
51292;SDS011;37377;45.186;9.778;2022-08-20T16:53:31;7.32;;;1.80;;
51292;SDS011;37377;45.186;9.778;2022-08-20T16:55:58;11.77;;;7.10;;
51292;SDS011;37377;45.186;9.778;2022-08-20T16:58:25;2.13;;;1.10;;
51292;SDS011;37377;45.186;9.778;2022-08-20T17:01:06;4.85;;;1.10;;
51292;SDS011;37377;45.186;9.778;2022-08-20T17:03:34;1.35;;;1.00;;
51292;SDS011;37377;45.186;9.778;2022-08-20T17:09:02;3.33;;;1.40;;
51292;SDS011;37377;45.186;9.778;2022-08-20T17:11:34;14.05;;;1.63;;
51292;SDS011;37377;45.186;9.778;2022-08-20T17:14:03;2.17;;;1.42;;
51292;SDS011;37377;45.186;9.778;2022-08-20T17:16:35;3.42;;;1.30;;
51292;SDS011;37377;45.186;9.778;2022-08-20T17:19:12;2.38;;;1.10;;
51292;SDS011;37377;45.186;9.778;2022-08-20T17:22:10;7.07;;;1.10;;
51292;SDS011;37377;45.186;9.778;2022-08-20T17:24:40;4.27;;;1.00;;
51292;SDS011;37377;45.186;9.778;2022-08-20T17:27:11;5.47;;;1.27;;
51292;SDS011;37377;45.186;9.778;2022-08-20T17:29:51;7.15;;;1.20;;
51292;SDS011;37377;45.186;9.778;2022-08-20T17:32:24;7.60;;;1.30;;
51292;SDS011;37377;45.186;9.778;2022-08-20T17:34:54;6.03;;;1.30;;
51292;SDS011;37377;45.186;9.778;2022-08-20T17:37:30;4.65;;;1.70;;
51292;SDS011;37377;45.186;9.778;2022-08-20T17:43:00;5.70;;;1.60;;
51292;SDS011;37377;45.186;9.778;2022-08-20T17:45:30;2.60;;;1.30;;
51292;SDS011;37377;45.186;9.778;2022-08-20T17:48:07;4.40;;;1.20;;
51292;SDS011;37377;45.186;9.778;2022-08-20T17:50:38;2.40;;;1.20;;